sensor_id;sensor_type;location;lat;lon;timestamp;P1;durP1;ratioP1;P2;durP2;ratioP2
10277;SDS011;5184;51.376;7.148;2024-02-21T00:01:04;17.43;;;9.70;;
10277;SDS011;5184;51.376;7.148;2024-02-21T00:03:31;18.23;;;9.37;;
10277;SDS011;5184;51.376;7.148;2024-02-21T00:05:58;24.83;;;9.23;;
10277;SDS011;5184;51.376;7.148;2024-02-21T00:08:25;21.67;;;9.27;;
10277;SDS011;5184;51.376;7.148;2024-02-21T00:10:52;18.43;;;9.67;;
10277;SDS011;5184;51.376;7.148;2024-02-21T00:13:18;20.90;;;9.90;;
10277;SDS011;5184;51.376;7.148;2024-02-21T00:15:46;19.90;;;9.20;;
10277;SDS011;5184;51.376;7.148;2024-02-21T00:18:13;19.67;;;9.93;;
10277;SDS011;5184;51.376;7.148;2024-02-21T00:20:40;24.17;;;9.47;;
10277;SDS011;5184;51.376;7.148;2024-02-21T00:23:06;22.93;;;10.13;;
10277;SDS011;5184;51.376;7.148;2024-02-21T00:25:33;17.83;;;9.10;;
10277;SDS011;5184;51.376;7.148;2024-02-21T00:28:01;17.77;;;9.00;;
10277;SDS011;5184;51.376;7.148;2024-02-21T00:30:27;20.77;;;9.53;;
10277;SDS011;5184;51.376;7.148;2024-02-21T00:32:55;19.30;;;8.60;;
10277;SDS011;5184;51.376;7.148;2024-02-21T00:35:22;16.73;;;9.13;;
10277;SDS011;5184;51.376;7.148;2024-02-21T00:37:50;18.43;;;9.17;;
10277;SDS011;5184;51.376;7.148;2024-02-21T00:40:17;18.50;;;8.97;;
10277;SDS011;5184;51.376;7.148;2024-02-21T00:42:43;22.10;;;10.23;;
10277;SDS011;5184;51.376;7.148;2024-02-21T00:45:10;21.20;;;9.27;;
10277;SDS011;5184;51.376;7.148;2024-02-21T00:47:37;22.23;;;9.17;;
10277;SDS011;5184;51.376;7.148;2024-02-21T00:50:04;21.63;;;9.60;;
10277;SDS011;5184;51.376;7.148;2024-02-21T00:52:31;19.00;;;10.07;;
10277;SDS011;5184;51.376;7.148;2024-02-21T00:54:58;18.70;;;10.20;;
10277;SDS011;5184;51.376;7.148;2024-02-21T00:57:25;18.07;;;8.67;;
10277;SDS011;5184;51.376;7.148;2024-02-21T00:59:51;17.67;;;8.57;;
10277;SDS011;5184;51.376;7.148;2024-02-21T01:02:18;18.27;;;9.13;;
10277;SDS011;5184;51.376;7.148;2024-02-21T01:04:44;18.40;;;9.10;;
10277;SDS011;5184;51.376;7.148;2024-02-21T01:07:12;20.47;;;8.63;;
10277;SDS011;5184;51.376;7.148;2024-02-21T01:09:39;22.67;;;8.97;;
10277;SDS011;5184;51.376;7.148;2024-02-21T01:12:06;18.43;;;8.93;;
10277;SDS011;5184;51.376;7.148;2024-02-21T01:14:33;19.43;;;8.87;;
10277;SDS011;5184;51.376;7.148;2024-02-21T01:17:00;17.63;;;9.27;;
10277;SDS011;5184;51.376;7.148;2024-02-21T01:19:28;17.43;;;9.83;;
10277;SDS011;5184;51.376;7.148;2024-02-21T01:21:55;17.90;;;8.90;;
10277;SDS011;5184;51.376;7.148;2024-02-21T01:24:22;19.03;;;9.10;;
10277;SDS011;5184;51.376;7.148;2024-02-21T01:26:50;22.90;;;8.90;;
10277;SDS011;5184;51.376;7.148;2024-02-21T01:29:16;19.43;;;8.80;;
10277;SDS011;5184;51.376;7.148;2024-02-21T01:31:43;17.93;;;9.23;;
10277;SDS011;5184;51.376;7.148;2024-02-21T01:34:10;20.83;;;10.43;;
10277;SDS011;5184;51.376;7.148;2024-02-21T01:36:36;17.47;;;9.20;;
10277;SDS011;5184;51.376;7.148;2024-02-21T01:39:03;17.60;;;9.10;;
10277;SDS011;5184;51.376;7.148;2024-02-21T01:41:30;21.43;;;9.87;;
10277;SDS011;5184;51.376;7.148;2024-02-21T01:43:58;19.77;;;9.20;;
10277;SDS011;5184;51.376;7.148;2024-02-21T01:46:25;17.87;;;9.40;;
10277;SDS011;5184;51.376;7.148;2024-02-21T01:48:51;19.17;;;9.03;;
10277;SDS011;5184;51.376;7.148;2024-02-21T01:51:18;16.83;;;9.13;;
10277;SDS011;5184;51.376;7.148;2024-02-21T01:53:45;19.73;;;9.17;;
10277;SDS011;5184;51.376;7.148;2024-02-21T01:56:12;16.93;;;9.43;;
10277;SDS011;5184;51.376;7.148;2024-02-21T01:58:38;18.63;;;9.47;;
10277;SDS011;5184;51.376;7.148;2024-02-21T02:01:05;20.77;;;9.40;;
10277;SDS011;5184;51.376;7.148;2024-02-21T02:03:33;16.67;;;9.40;;
10277;SDS011;5184;51.376;7.148;2024-02-21T02:06:00;18.53;;;9.33;;
10277;SDS011;5184;51.376;7.148;2024-02-21T02:08:27;18.30;;;8.80;;
10277;SDS011;5184;51.376;7.148;2024-02-21T02:10:54;18.47;;;9.37;;
10277;SDS011;5184;51.376;7.148;2024-02-21T02:13:21;22.40;;;9.50;;
10277;SDS011;5184;51.376;7.148;2024-02-21T02:15:48;21.40;;;9.13;;
10277;SDS011;5184;51.376;7.148;2024-02-21T02:18:14;20.13;;;8.90;;
10277;SDS011;5184;51.376;7.148;2024-02-21T02:20:41;21.83;;;9.73;;
10277;SDS011;5184;51.376;7.148;2024-02-21T02:23:10;19.57;;;10.43;;
10277;SDS011;5184;51.376;7.148;2024-02-21T02:25:38;18.73;;;8.70;;
10277;SDS011;5184;51.376;7.148;2024-02-21T02:28:05;16.20;;;8.87;;
10277;SDS011;5184;51.376;7.148;2024-02-21T02:30:33;18.80;;;9.43;;
10277;SDS011;5184;51.376;7.148;2024-02-21T02:32:59;15.07;;;8.57;;
10277;SDS011;5184;51.376;7.148;2024-02-21T02:35:26;15.57;;;9.13;;
10277;SDS011;5184;51.376;7.148;2024-02-21T02:37:54;18.27;;;9.60;;
10277;SDS011;5184;51.376;7.148;2024-02-21T02:40:20;19.17;;;8.83;;
10277;SDS011;5184;51.376;7.148;2024-02-21T02:42:47;20.57;;;9.50;;
10277;SDS011;5184;51.376;7.148;2024-02-21T02:45:14;18.50;;;8.97;;
10277;SDS011;5184;51.376;7.148;2024-02-21T02:47:40;23.20;;;8.87;;
10277;SDS011;5184;51.376;7.148;2024-02-21T02:50:07;19.33;;;9.27;;
10277;SDS011;5184;51.376;7.148;2024-02-21T02:52:34;20.43;;;8.83;;
10277;SDS011;5184;51.376;7.148;2024-02-21T02:55:02;19.27;;;9.17;;
10277;SDS011;5184;51.376;7.148;2024-02-21T02:57:29;17.23;;;8.97;;
10277;SDS011;5184;51.376;7.148;2024-02-21T02:59:56;15.00;;;8.60;;
10277;SDS011;5184;51.376;7.148;2024-02-21T03:02:23;17.53;;;8.53;;
10277;SDS011;5184;51.376;7.148;2024-02-21T03:04:51;22.87;;;9.07;;
10277;SDS011;5184;51.376;7.148;2024-02-21T03:07:19;16.70;;;8.50;;
10277;SDS011;5184;51.376;7.148;2024-02-21T03:09:46;16.23;;;7.83;;
10277;SDS011;5184;51.376;7.148;2024-02-21T03:12:12;17.03;;;8.60;;
10277;SDS011;5184;51.376;7.148;2024-02-21T03:14:39;14.63;;;8.17;;
10277;SDS011;5184;51.376;7.148;2024-02-21T03:17:05;19.90;;;8.77;;
10277;SDS011;5184;51.376;7.148;2024-02-21T03:19:32;16.23;;;8.70;;
10277;SDS011;5184;51.376;7.148;2024-02-21T03:21:58;22.47;;;8.83;;
10277;SDS011;5184;51.376;7.148;2024-02-21T03:24:26;17.47;;;9.13;;
10277;SDS011;5184;51.376;7.148;2024-02-21T03:26:53;16.30;;;8.10;;
10277;SDS011;5184;51.376;7.148;2024-02-21T03:29:21;18.33;;;8.00;;
10277;SDS011;5184;51.376;7.148;2024-02-21T03:31:48;15.23;;;7.97;;
10277;SDS011;5184;51.376;7.148;2024-02-21T03:34:15;20.87;;;8.53;;
10277;SDS011;5184;51.376;7.148;2024-02-21T03:36:41;15.47;;;8.40;;
10277;SDS011;5184;51.376;7.148;2024-02-21T03:39:08;17.60;;;9.37;;
10277;SDS011;5184;51.376;7.148;2024-02-21T03:41:34;19.13;;;9.47;;
10277;SDS011;5184;51.376;7.148;2024-02-21T03:44:01;17.50;;;8.10;;
10277;SDS011;5184;51.376;7.148;2024-02-21T03:46:28;15.73;;;8.80;;
10277;SDS011;5184;51.376;7.148;2024-02-21T03:48:56;14.40;;;7.70;;
10277;SDS011;5184;51.376;7.148;2024-02-21T03:51:23;16.67;;;8.17;;
10277;SDS011;5184;51.376;7.148;2024-02-21T03:53:50;15.43;;;8.87;;
10277;SDS011;5184;51.376;7.148;2024-02-21T03:56:18;12.77;;;7.93;;
10277;SDS011;5184;51.376;7.148;2024-02-21T03:58:44;16.50;;;8.90;;
10277;SDS011;5184;51.376;7.148;2024-02-21T04:01:11;13.37;;;8.20;;
10277;SDS011;5184;51.376;7.148;2024-02-21T04:03:38;12.90;;;8.10;;
10277;SDS011;5184;51.376;7.148;2024-02-21T04:06:04;15.47;;;8.00;;
10277;SDS011;5184;51.376;7.148;2024-02-21T04:08:31;15.00;;;7.77;;
10277;SDS011;5184;51.376;7.148;2024-02-21T04:10:58;15.60;;;8.30;;
10277;SDS011;5184;51.376;7.148;2024-02-21T04:13:25;18.17;;;7.77;;
10277;SDS011;5184;51.376;7.148;2024-02-21T04:15:51;13.83;;;7.30;;
10277;SDS011;5184;51.376;7.148;2024-02-21T04:18:18;16.07;;;7.63;;
10277;SDS011;5184;51.376;7.148;2024-02-21T04:20:44;15.27;;;8.00;;
10277;SDS011;5184;51.376;7.148;2024-02-21T04:23:12;15.97;;;7.37;;
10277;SDS011;5184;51.376;7.148;2024-02-21T04:25:39;15.23;;;7.87;;
10277;SDS011;5184;51.376;7.148;2024-02-21T04:28:07;14.33;;;7.47;;
10277;SDS011;5184;51.376;7.148;2024-02-21T04:30:34;13.70;;;7.87;;
10277;SDS011;5184;51.376;7.148;2024-02-21T04:33:00;11.73;;;7.40;;
10277;SDS011;5184;51.376;7.148;2024-02-21T04:35:27;13.83;;;7.30;;
10277;SDS011;5184;51.376;7.148;2024-02-21T04:37:54;14.07;;;7.47;;
10277;SDS011;5184;51.376;7.148;2024-02-21T04:40:20;17.63;;;7.73;;
10277;SDS011;5184;51.376;7.148;2024-02-21T04:42:47;14.03;;;7.30;;
10277;SDS011;5184;51.376;7.148;2024-02-21T04:45:14;14.97;;;7.63;;
10277;SDS011;5184;51.376;7.148;2024-02-21T04:47:42;14.77;;;7.30;;
10277;SDS011;5184;51.376;7.148;2024-02-21T04:50:07;13.40;;;6.90;;
10277;SDS011;5184;51.376;7.148;2024-02-21T04:52:35;12.83;;;6.90;;
10277;SDS011;5184;51.376;7.148;2024-02-21T04:55:02;14.43;;;7.57;;
10277;SDS011;5184;51.376;7.148;2024-02-21T04:57:29;14.97;;;7.10;;
10277;SDS011;5184;51.376;7.148;2024-02-21T04:59:56;17.47;;;7.20;;
10277;SDS011;5184;51.376;7.148;2024-02-21T05:02:22;11.50;;;6.40;;
10277;SDS011;5184;51.376;7.148;2024-02-21T05:04:49;13.40;;;6.50;;
10277;SDS011;5184;51.376;7.148;2024-02-21T05:07:16;16.17;;;6.37;;
10277;SDS011;5184;51.376;7.148;2024-02-21T05:09:44;12.77;;;6.90;;
10277;SDS011;5184;51.376;7.148;2024-02-21T05:12:11;18.63;;;6.77;;
10277;SDS011;5184;51.376;7.148;2024-02-21T05:14:38;12.47;;;6.50;;
10277;SDS011;5184;51.376;7.148;2024-02-21T05:17:05;13.07;;;6.60;;
10277;SDS011;5184;51.376;7.148;2024-02-21T05:19:31;12.60;;;6.37;;
10277;SDS011;5184;51.376;7.148;2024-02-21T05:21:58;12.60;;;6.40;;
10277;SDS011;5184;51.376;7.148;2024-02-21T05:24:25;12.30;;;6.33;;
10277;SDS011;5184;51.376;7.148;2024-02-21T05:26:51;16.47;;;6.70;;
10277;SDS011;5184;51.376;7.148;2024-02-21T05:29:19;8.70;;;6.20;;
10277;SDS011;5184;51.376;7.148;2024-02-21T05:31:57;11.93;;;6.67;;
10277;SDS011;5184;51.376;7.148;2024-02-21T05:34:23;12.43;;;6.77;;
10277;SDS011;5184;51.376;7.148;2024-02-21T05:36:50;13.83;;;6.83;;
10277;SDS011;5184;51.376;7.148;2024-02-21T05:39:18;9.67;;;5.80;;
10277;SDS011;5184;51.376;7.148;2024-02-21T05:41:45;14.83;;;6.33;;
10277;SDS011;5184;51.376;7.148;2024-02-21T05:44:12;13.97;;;6.70;;
10277;SDS011;5184;51.376;7.148;2024-02-21T05:46:39;13.97;;;6.90;;
10277;SDS011;5184;51.376;7.148;2024-02-21T05:49:07;10.97;;;6.37;;
10277;SDS011;5184;51.376;7.148;2024-02-21T05:51:34;13.00;;;6.10;;
10277;SDS011;5184;51.376;7.148;2024-02-21T05:54:00;12.50;;;5.50;;
10277;SDS011;5184;51.376;7.148;2024-02-21T05:56:27;13.70;;;6.80;;
10277;SDS011;5184;51.376;7.148;2024-02-21T05:58:53;13.10;;;5.77;;
10277;SDS011;5184;51.376;7.148;2024-02-21T06:01:20;12.07;;;6.13;;
10277;SDS011;5184;51.376;7.148;2024-02-21T06:03:47;12.00;;;6.43;;
10277;SDS011;5184;51.376;7.148;2024-02-21T06:06:14;11.10;;;6.90;;
10277;SDS011;5184;51.376;7.148;2024-02-21T06:08:41;12.73;;;6.07;;
10277;SDS011;5184;51.376;7.148;2024-02-21T06:11:09;11.93;;;6.63;;
10277;SDS011;5184;51.376;7.148;2024-02-21T06:13:38;10.67;;;6.40;;
10277;SDS011;5184;51.376;7.148;2024-02-21T06:16:04;10.37;;;5.70;;
10277;SDS011;5184;51.376;7.148;2024-02-21T06:18:31;13.00;;;5.70;;
10277;SDS011;5184;51.376;7.148;2024-02-21T06:20:58;10.73;;;5.80;;
10277;SDS011;5184;51.376;7.148;2024-02-21T06:23:26;11.43;;;5.90;;
10277;SDS011;5184;51.376;7.148;2024-02-21T06:25:53;12.10;;;5.70;;
10277;SDS011;5184;51.376;7.148;2024-02-21T06:28:20;11.53;;;6.50;;
10277;SDS011;5184;51.376;7.148;2024-02-21T06:30:47;12.20;;;5.80;;
10277;SDS011;5184;51.376;7.148;2024-02-21T06:33:14;10.60;;;6.10;;
10277;SDS011;5184;51.376;7.148;2024-02-21T06:35:40;8.37;;;5.40;;
10277;SDS011;5184;51.376;7.148;2024-02-21T06:38:07;9.50;;;5.17;;
10277;SDS011;5184;51.376;7.148;2024-02-21T06:40:34;9.37;;;5.00;;
10277;SDS011;5184;51.376;7.148;2024-02-21T06:43:01;7.63;;;4.77;;
10277;SDS011;5184;51.376;7.148;2024-02-21T06:45:28;8.07;;;5.07;;
10277;SDS011;5184;51.376;7.148;2024-02-21T06:47:55;7.77;;;4.70;;
10277;SDS011;5184;51.376;7.148;2024-02-21T06:50:23;8.53;;;4.83;;
10277;SDS011;5184;51.376;7.148;2024-02-21T06:52:49;10.30;;;4.97;;
10277;SDS011;5184;51.376;7.148;2024-02-21T06:55:17;9.63;;;4.77;;
10277;SDS011;5184;51.376;7.148;2024-02-21T06:57:45;10.90;;;5.17;;
10277;SDS011;5184;51.376;7.148;2024-02-21T07:00:12;9.70;;;4.30;;
10277;SDS011;5184;51.376;7.148;2024-02-21T07:02:39;11.03;;;5.40;;
10277;SDS011;5184;51.376;7.148;2024-02-21T07:05:07;7.73;;;4.90;;
10277;SDS011;5184;51.376;7.148;2024-02-21T07:07:33;9.37;;;5.17;;
10277;SDS011;5184;51.376;7.148;2024-02-21T07:10:01;13.53;;;4.60;;
10277;SDS011;5184;51.376;7.148;2024-02-21T07:12:28;8.60;;;4.43;;
10277;SDS011;5184;51.376;7.148;2024-02-21T07:14:55;9.33;;;4.10;;
10277;SDS011;5184;51.376;7.148;2024-02-21T07:17:21;11.50;;;4.73;;
10277;SDS011;5184;51.376;7.148;2024-02-21T07:19:48;9.73;;;4.60;;
10277;SDS011;5184;51.376;7.148;2024-02-21T07:22:16;8.83;;;4.50;;
10277;SDS011;5184;51.376;7.148;2024-02-21T07:24:43;6.87;;;4.63;;
10277;SDS011;5184;51.376;7.148;2024-02-21T07:27:10;9.87;;;4.87;;
10277;SDS011;5184;51.376;7.148;2024-02-21T07:29:37;12.23;;;5.40;;
10277;SDS011;5184;51.376;7.148;2024-02-21T07:32:04;9.57;;;5.37;;
10277;SDS011;5184;51.376;7.148;2024-02-21T07:34:31;12.50;;;4.90;;
10277;SDS011;5184;51.376;7.148;2024-02-21T07:36:57;9.40;;;4.90;;
10277;SDS011;5184;51.376;7.148;2024-02-21T07:39:24;8.90;;;5.10;;
10277;SDS011;5184;51.376;7.148;2024-02-21T07:41:51;8.67;;;5.00;;
10277;SDS011;5184;51.376;7.148;2024-02-21T07:44:17;8.73;;;5.17;;
10277;SDS011;5184;51.376;7.148;2024-02-21T07:46:45;9.17;;;5.00;;
10277;SDS011;5184;51.376;7.148;2024-02-21T07:49:13;8.77;;;5.10;;
10277;SDS011;5184;51.376;7.148;2024-02-21T07:51:40;9.50;;;5.40;;
10277;SDS011;5184;51.376;7.148;2024-02-21T07:54:07;11.80;;;4.77;;
10277;SDS011;5184;51.376;7.148;2024-02-21T07:56:34;7.73;;;4.97;;
10277;SDS011;5184;51.376;7.148;2024-02-21T07:59:01;8.70;;;4.63;;
10277;SDS011;5184;51.376;7.148;2024-02-21T08:01:27;8.93;;;4.50;;
10277;SDS011;5184;51.376;7.148;2024-02-21T08:03:54;8.83;;;4.60;;
10277;SDS011;5184;51.376;7.148;2024-02-21T08:06:20;10.43;;;5.07;;
10277;SDS011;5184;51.376;7.148;2024-02-21T08:08:47;6.50;;;4.43;;
10277;SDS011;5184;51.376;7.148;2024-02-21T08:11:14;8.07;;;4.13;;
10277;SDS011;5184;51.376;7.148;2024-02-21T08:13:41;9.37;;;4.50;;
10277;SDS011;5184;51.376;7.148;2024-02-21T08:16:08;8.47;;;3.97;;
10277;SDS011;5184;51.376;7.148;2024-02-21T08:18:36;8.53;;;4.00;;
10277;SDS011;5184;51.376;7.148;2024-02-21T08:21:03;8.67;;;4.33;;
10277;SDS011;5184;51.376;7.148;2024-02-21T08:23:30;6.97;;;3.93;;
10277;SDS011;5184;51.376;7.148;2024-02-21T08:25:57;6.73;;;3.60;;
10277;SDS011;5184;51.376;7.148;2024-02-21T08:28:25;9.87;;;3.90;;
10277;SDS011;5184;51.376;7.148;2024-02-21T08:30:52;7.13;;;4.17;;
10277;SDS011;5184;51.376;7.148;2024-02-21T08:33:18;8.23;;;3.83;;
10277;SDS011;5184;51.376;7.148;2024-02-21T08:35:45;7.53;;;4.27;;
10277;SDS011;5184;51.376;7.148;2024-02-21T08:38:12;8.10;;;4.43;;
10277;SDS011;5184;51.376;7.148;2024-02-21T08:40:39;9.13;;;4.20;;
10277;SDS011;5184;51.376;7.148;2024-02-21T08:43:07;9.87;;;4.30;;
10277;SDS011;5184;51.376;7.148;2024-02-21T08:45:34;9.20;;;4.00;;
10277;SDS011;5184;51.376;7.148;2024-02-21T08:48:02;9.17;;;4.27;;
10277;SDS011;5184;51.376;7.148;2024-02-21T08:50:28;9.33;;;4.53;;
10277;SDS011;5184;51.376;7.148;2024-02-21T08:52:56;10.83;;;5.00;;
10277;SDS011;5184;51.376;7.148;2024-02-21T08:55:23;10.00;;;4.40;;
10277;SDS011;5184;51.376;7.148;2024-02-21T08:57:51;10.70;;;4.77;;
10277;SDS011;5184;51.376;7.148;2024-02-21T09:00:19;7.33;;;4.73;;
10277;SDS011;5184;51.376;7.148;2024-02-21T09:02:46;9.97;;;4.70;;
10277;SDS011;5184;51.376;7.148;2024-02-21T09:05:13;12.60;;;5.17;;
10277;SDS011;5184;51.376;7.148;2024-02-21T09:07:40;12.37;;;5.47;;
10277;SDS011;5184;51.376;7.148;2024-02-21T09:10:06;8.00;;;4.80;;
10277;SDS011;5184;51.376;7.148;2024-02-21T09:12:33;10.40;;;5.47;;
10277;SDS011;5184;51.376;7.148;2024-02-21T09:15:00;13.90;;;6.10;;
10277;SDS011;5184;51.376;7.148;2024-02-21T09:17:27;11.00;;;5.13;;
10277;SDS011;5184;51.376;7.148;2024-02-21T09:19:53;9.87;;;5.00;;
10277;SDS011;5184;51.376;7.148;2024-02-21T09:22:20;11.37;;;5.80;;
10277;SDS011;5184;51.376;7.148;2024-02-21T09:24:46;10.50;;;5.80;;
10277;SDS011;5184;51.376;7.148;2024-02-21T09:27:14;11.40;;;5.30;;
10277;SDS011;5184;51.376;7.148;2024-02-21T09:29:41;10.70;;;5.20;;
10277;SDS011;5184;51.376;7.148;2024-02-21T09:32:08;12.03;;;5.90;;
10277;SDS011;5184;51.376;7.148;2024-02-21T09:34:36;11.20;;;5.87;;
10277;SDS011;5184;51.376;7.148;2024-02-21T09:37:02;8.90;;;5.37;;
10277;SDS011;5184;51.376;7.148;2024-02-21T09:39:29;14.03;;;6.30;;
10277;SDS011;5184;51.376;7.148;2024-02-21T09:41:58;12.60;;;6.27;;
10277;SDS011;5184;51.376;7.148;2024-02-21T09:44:24;11.07;;;6.07;;
10277;SDS011;5184;51.376;7.148;2024-02-21T09:46:52;9.40;;;5.63;;
10277;SDS011;5184;51.376;7.148;2024-02-21T09:49:23;8.80;;;5.63;;
10277;SDS011;5184;51.376;7.148;2024-02-21T09:51:52;8.63;;;5.50;;
10277;SDS011;5184;51.376;7.148;2024-02-21T09:54:19;11.27;;;5.73;;
10277;SDS011;5184;51.376;7.148;2024-02-21T09:56:46;9.53;;;5.83;;
10277;SDS011;5184;51.376;7.148;2024-02-21T09:59:13;10.13;;;5.33;;
10277;SDS011;5184;51.376;7.148;2024-02-21T10:01:39;10.77;;;5.80;;
10277;SDS011;5184;51.376;7.148;2024-02-21T10:04:06;10.27;;;5.43;;
10277;SDS011;5184;51.376;7.148;2024-02-21T10:06:33;11.77;;;5.73;;
10277;SDS011;5184;51.376;7.148;2024-02-21T10:09:01;11.37;;;5.13;;
10277;SDS011;5184;51.376;7.148;2024-02-21T10:11:28;9.97;;;5.60;;
10277;SDS011;5184;51.376;7.148;2024-02-21T10:16:29;11.73;;;6.47;;
10277;SDS011;5184;51.376;7.148;2024-02-21T10:18:56;12.37;;;5.73;;
10277;SDS011;5184;51.376;7.148;2024-02-21T10:21:22;11.27;;;5.43;;
10277;SDS011;5184;51.376;7.148;2024-02-21T10:23:49;9.70;;;5.17;;
10277;SDS011;5184;51.376;7.148;2024-02-21T10:26:17;12.13;;;5.87;;
10277;SDS011;5184;51.376;7.148;2024-02-21T10:28:43;7.97;;;4.80;;
10277;SDS011;5184;51.376;7.148;2024-02-21T10:31:10;9.00;;;4.83;;
10277;SDS011;5184;51.376;7.148;2024-02-21T10:33:37;10.40;;;4.90;;
10277;SDS011;5184;51.376;7.148;2024-02-21T10:36:07;10.30;;;5.10;;
10277;SDS011;5184;51.376;7.148;2024-02-21T10:38:33;10.57;;;5.23;;
10277;SDS011;5184;51.376;7.148;2024-02-21T10:41:00;9.13;;;4.67;;
10277;SDS011;5184;51.376;7.148;2024-02-21T10:43:27;9.67;;;5.57;;
10277;SDS011;5184;51.376;7.148;2024-02-21T10:45:54;8.97;;;4.80;;
10277;SDS011;5184;51.376;7.148;2024-02-21T10:48:24;7.57;;;5.30;;
10277;SDS011;5184;51.376;7.148;2024-02-21T10:50:56;6.70;;;4.80;;
10277;SDS011;5184;51.376;7.148;2024-02-21T10:53:20;6.77;;;5.03;;
10277;SDS011;5184;51.376;7.148;2024-02-21T10:55:49;7.97;;;5.40;;
10277;SDS011;5184;51.376;7.148;2024-02-21T10:58:13;8.70;;;5.00;;
10277;SDS011;5184;51.376;7.148;2024-02-21T11:00:39;8.47;;;5.03;;
10277;SDS011;5184;51.376;7.148;2024-02-21T11:03:06;8.80;;;5.20;;
10277;SDS011;5184;51.376;7.148;2024-02-21T11:05:34;9.33;;;5.40;;
10277;SDS011;5184;51.376;7.148;2024-02-21T11:08:02;7.80;;;4.90;;
10277;SDS011;5184;51.376;7.148;2024-02-21T11:10:28;8.47;;;4.77;;
10277;SDS011;5184;51.376;7.148;2024-02-21T11:15:31;8.70;;;5.00;;
10277;SDS011;5184;51.376;7.148;2024-02-21T11:17:58;8.60;;;4.93;;
10277;SDS011;5184;51.376;7.148;2024-02-21T11:20:32;8.00;;;4.60;;
10277;SDS011;5184;51.376;7.148;2024-02-21T11:22:59;7.00;;;3.97;;
10277;SDS011;5184;51.376;7.148;2024-02-21T11:25:27;6.90;;;3.87;;
10277;SDS011;5184;51.376;7.148;2024-02-21T11:27:59;8.40;;;4.50;;
10277;SDS011;5184;51.376;7.148;2024-02-21T11:30:27;6.67;;;4.20;;
10277;SDS011;5184;51.376;7.148;2024-02-21T11:33:09;7.33;;;4.33;;
10277;SDS011;5184;51.376;7.148;2024-02-21T11:35:35;7.13;;;4.20;;
10277;SDS011;5184;51.376;7.148;2024-02-21T11:38:08;10.97;;;4.90;;
10277;SDS011;5184;51.376;7.148;2024-02-21T11:40:34;5.73;;;3.73;;
10277;SDS011;5184;51.376;7.148;2024-02-21T11:43:01;6.43;;;4.53;;
10277;SDS011;5184;51.376;7.148;2024-02-21T11:45:27;7.20;;;4.60;;
10277;SDS011;5184;51.376;7.148;2024-02-21T11:47:55;7.80;;;3.80;;
10277;SDS011;5184;51.376;7.148;2024-02-21T11:50:22;7.83;;;3.80;;
10277;SDS011;5184;51.376;7.148;2024-02-21T11:52:48;6.13;;;3.83;;
10277;SDS011;5184;51.376;7.148;2024-02-21T11:55:15;7.43;;;3.83;;
10277;SDS011;5184;51.376;7.148;2024-02-21T11:57:42;8.33;;;3.27;;
10277;SDS011;5184;51.376;7.148;2024-02-21T12:00:12;8.63;;;3.83;;
10277;SDS011;5184;51.376;7.148;2024-02-21T12:02:39;6.40;;;3.60;;
10277;SDS011;5184;51.376;7.148;2024-02-21T12:05:05;6.97;;;3.40;;
10277;SDS011;5184;51.376;7.148;2024-02-21T12:07:32;7.33;;;3.30;;
10277;SDS011;5184;51.376;7.148;2024-02-21T12:09:59;8.10;;;3.20;;
10277;SDS011;5184;51.376;7.148;2024-02-21T12:12:26;7.33;;;3.17;;
10277;SDS011;5184;51.376;7.148;2024-02-21T12:14:55;6.37;;;3.10;;
10277;SDS011;5184;51.376;7.148;2024-02-21T12:17:25;7.87;;;3.73;;
10277;SDS011;5184;51.376;7.148;2024-02-21T12:19:52;6.83;;;3.57;;
10277;SDS011;5184;51.376;7.148;2024-02-21T12:22:19;7.00;;;3.67;;
10277;SDS011;5184;51.376;7.148;2024-02-21T12:24:46;8.17;;;3.57;;
10277;SDS011;5184;51.376;7.148;2024-02-21T12:27:13;8.23;;;3.40;;
10277;SDS011;5184;51.376;7.148;2024-02-21T12:29:39;7.53;;;3.33;;
10277;SDS011;5184;51.376;7.148;2024-02-21T12:32:06;9.03;;;3.13;;
10277;SDS011;5184;51.376;7.148;2024-02-21T12:34:32;7.03;;;2.83;;
10277;SDS011;5184;51.376;7.148;2024-02-21T12:37:01;7.37;;;2.80;;
10277;SDS011;5184;51.376;7.148;2024-02-21T12:39:27;4.77;;;2.50;;
10277;SDS011;5184;51.376;7.148;2024-02-21T12:41:53;6.90;;;2.87;;
10277;SDS011;5184;51.376;7.148;2024-02-21T12:44:21;7.13;;;3.10;;
10277;SDS011;5184;51.376;7.148;2024-02-21T12:46:48;5.73;;;2.90;;
10277;SDS011;5184;51.376;7.148;2024-02-21T12:49:15;6.33;;;2.70;;
10277;SDS011;5184;51.376;7.148;2024-02-21T12:51:44;6.70;;;3.23;;
10277;SDS011;5184;51.376;7.148;2024-02-21T12:54:11;6.27;;;2.73;;
10277;SDS011;5184;51.376;7.148;2024-02-21T12:56:38;5.53;;;3.00;;
10277;SDS011;5184;51.376;7.148;2024-02-21T12:59:05;8.23;;;3.17;;
10277;SDS011;5184;51.376;7.148;2024-02-21T13:01:32;6.50;;;2.83;;
10277;SDS011;5184;51.376;7.148;2024-02-21T13:03:59;6.13;;;2.67;;
10277;SDS011;5184;51.376;7.148;2024-02-21T13:06:25;7.53;;;2.77;;
10277;SDS011;5184;51.376;7.148;2024-02-21T13:08:53;8.67;;;2.83;;
10277;SDS011;5184;51.376;7.148;2024-02-21T13:11:20;7.17;;;2.90;;
10277;SDS011;5184;51.376;7.148;2024-02-21T13:13:48;8.50;;;2.90;;
10277;SDS011;5184;51.376;7.148;2024-02-21T13:16:14;6.63;;;2.60;;
10277;SDS011;5184;51.376;7.148;2024-02-21T13:18:41;4.37;;;2.90;;
10277;SDS011;5184;51.376;7.148;2024-02-21T13:21:09;7.40;;;2.77;;
10277;SDS011;5184;51.376;7.148;2024-02-21T13:23:36;5.80;;;2.63;;
10277;SDS011;5184;51.376;7.148;2024-02-21T13:26:03;4.60;;;2.80;;
10277;SDS011;5184;51.376;7.148;2024-02-21T13:28:29;5.97;;;2.60;;
10277;SDS011;5184;51.376;7.148;2024-02-21T13:30:56;7.07;;;3.00;;
10277;SDS011;5184;51.376;7.148;2024-02-21T13:33:23;5.57;;;2.97;;
10277;SDS011;5184;51.376;7.148;2024-02-21T13:35:49;6.37;;;2.73;;
10277;SDS011;5184;51.376;7.148;2024-02-21T13:38:16;6.10;;;2.60;;
10277;SDS011;5184;51.376;7.148;2024-02-21T13:40:42;6.30;;;2.57;;
10277;SDS011;5184;51.376;7.148;2024-02-21T13:43:09;4.67;;;2.10;;
10277;SDS011;5184;51.376;7.148;2024-02-21T13:45:36;7.17;;;2.40;;
10277;SDS011;5184;51.376;7.148;2024-02-21T13:48:04;6.23;;;2.63;;
10277;SDS011;5184;51.376;7.148;2024-02-21T13:50:31;7.17;;;2.53;;
10277;SDS011;5184;51.376;7.148;2024-02-21T13:52:58;6.47;;;2.50;;
10277;SDS011;5184;51.376;7.148;2024-02-21T13:55:24;6.03;;;2.43;;
10277;SDS011;5184;51.376;7.148;2024-02-21T13:57:51;4.87;;;2.50;;
10277;SDS011;5184;51.376;7.148;2024-02-21T14:00:18;4.43;;;2.60;;
10277;SDS011;5184;51.376;7.148;2024-02-21T14:02:45;4.73;;;2.43;;
10277;SDS011;5184;51.376;7.148;2024-02-21T14:05:12;5.20;;;2.20;;
10277;SDS011;5184;51.376;7.148;2024-02-21T14:07:39;5.97;;;2.63;;
10277;SDS011;5184;51.376;7.148;2024-02-21T14:10:07;6.40;;;2.50;;
10277;SDS011;5184;51.376;7.148;2024-02-21T14:12:34;5.90;;;2.53;;
10277;SDS011;5184;51.376;7.148;2024-02-21T14:15:00;5.50;;;2.70;;
10277;SDS011;5184;51.376;7.148;2024-02-21T14:17:27;4.27;;;2.40;;
10277;SDS011;5184;51.376;7.148;2024-02-21T14:19:53;3.83;;;2.10;;
10277;SDS011;5184;51.376;7.148;2024-02-21T14:22:21;5.83;;;2.30;;
10277;SDS011;5184;51.376;7.148;2024-02-21T14:24:48;5.07;;;2.40;;
10277;SDS011;5184;51.376;7.148;2024-02-21T14:27:16;6.57;;;2.10;;
10277;SDS011;5184;51.376;7.148;2024-02-21T14:29:43;4.83;;;2.33;;
10277;SDS011;5184;51.376;7.148;2024-02-21T14:32:10;7.07;;;2.67;;
10277;SDS011;5184;51.376;7.148;2024-02-21T14:34:38;4.50;;;2.40;;
10277;SDS011;5184;51.376;7.148;2024-02-21T14:37:05;5.37;;;2.37;;
10277;SDS011;5184;51.376;7.148;2024-02-21T14:39:32;6.40;;;2.50;;
10277;SDS011;5184;51.376;7.148;2024-02-21T14:42:00;6.10;;;2.33;;
10277;SDS011;5184;51.376;7.148;2024-02-21T14:44:27;5.40;;;2.47;;
10277;SDS011;5184;51.376;7.148;2024-02-21T14:46:54;4.93;;;2.60;;
10277;SDS011;5184;51.376;7.148;2024-02-21T14:49:21;7.33;;;2.80;;
10277;SDS011;5184;51.376;7.148;2024-02-21T14:51:48;5.73;;;2.70;;
10277;SDS011;5184;51.376;7.148;2024-02-21T14:54:14;5.87;;;2.83;;
10277;SDS011;5184;51.376;7.148;2024-02-21T14:56:41;5.47;;;2.47;;